createdAt,value
2018-06-24T00:00:32.639Z,3.07
2018-06-24T00:05:35.931Z,5.40
2018-06-24T00:10:39.234Z,3.27
2018-06-24T00:15:42.265Z,3.13
2018-06-24T00:20:45.579Z,3.93
2018-06-24T00:25:48.871Z,7.07
2018-06-24T00:30:51.924Z,3.93
2018-06-24T00:35:55.291Z,3.97
2018-06-24T00:40:58.310Z,3.77
2018-06-24T00:46:01.580Z,5.07
2018-06-24T00:51:04.580Z,4.30
2018-06-24T00:56:07.603Z,5.73
2018-06-24T01:01:10.610Z,3.90
2018-06-24T01:06:13.875Z,5.63
2018-06-24T01:11:17.179Z,5.87
2018-06-24T01:16:20.474Z,4.80
2018-06-24T01:21:23.743Z,5.90
2018-06-24T01:26:27.019Z,7.43
2018-06-24T01:31:30.301Z,7.93
2018-06-24T01:36:33.559Z,4.13
2018-06-24T01:41:36.845Z,6.30
2018-06-24T01:46:40.102Z,4.13
2018-06-24T01:51:43.119Z,5.40
2018-06-24T01:56:46.387Z,6.70
2018-06-24T02:01:49.575Z,5.13
2018-06-24T02:06:53.157Z,3.67
2018-06-24T02:11:56.440Z,8.23
2018-06-24T02:18:02.675Z,5.07
2018-06-24T02:23:05.724Z,4.67
2018-06-24T02:28:08.730Z,4.80
2018-06-24T02:33:12.051Z,6.27
2018-06-24T02:38:15.329Z,5.80
2018-06-24T02:43:18.599Z,4.40
2018-06-24T02:48:21.879Z,5.40
2018-06-24T02:53:25.148Z,5.00
2018-06-24T02:58:28.444Z,5.67
2018-06-24T03:03:31.721Z,5.53
2018-06-24T03:08:34.988Z,5.33
2018-06-24T03:13:38.351Z,5.03
2018-06-24T03:18:41.365Z,4.23
2018-06-24T03:23:44.383Z,6.60
2018-06-24T03:28:47.389Z,7.90
2018-06-24T03:33:50.419Z,5.80
2018-06-24T03:38:53.702Z,4.37
2018-06-24T03:43:56.973Z,4.47
2018-06-24T03:49:00.236Z,6.83
2018-06-24T03:54:03.524Z,5.67
2018-06-24T03:59:06.840Z,7.07
2018-06-24T04:04:10.142Z,7.47
2018-06-24T04:09:13.404Z,5.90
2018-06-24T04:14:16.671Z,6.20
2018-06-24T04:19:19.915Z,6.17
2018-06-24T04:24:23.287Z,6.07
2018-06-24T04:29:26.543Z,5.20
2018-06-24T04:34:29.825Z,6.07
2018-06-24T04:39:33.117Z,8.87
2018-06-24T04:44:36.440Z,5.33
2018-06-24T04:49:39.460Z,8.27
2018-06-24T04:54:42.741Z,6.37
2018-06-24T04:59:46.036Z,7.57
2018-06-24T05:04:49.315Z,6.93
2018-06-24T05:09:52.670Z,6.87
2018-06-24T05:14:55.699Z,9.73
2018-06-24T05:19:59.291Z,6.93
2018-06-24T05:25:02.580Z,7.27
2018-06-24T05:30:06.146Z,5.27
2018-06-24T05:35:09.176Z,11.17
2018-06-24T05:40:12.219Z,8.57
2018-06-24T05:45:15.873Z,7.77
2018-06-24T05:50:19.780Z,7.47
2018-06-24T05:55:22.804Z,12.67
2018-06-24T06:00:26.103Z,9.70
2018-06-24T06:05:29.601Z,7.90
2018-06-24T06:10:32.893Z,6.17
2018-06-24T06:15:36.863Z,7.73
2018-06-24T06:20:40.752Z,8.90
2018-06-24T06:25:43.910Z,7.83
2018-06-24T06:30:48.356Z,7.10
2018-06-24T06:35:51.687Z,8.10
2018-06-24T06:40:55.034Z,6.63
2018-06-24T06:45:58.456Z,6.90
2018-06-24T06:51:01.836Z,7.47
2018-06-24T06:56:05.402Z,7.93
2018-06-24T07:01:08.700Z,9.07
2018-06-24T07:06:12.013Z,6.30
2018-06-24T07:11:15.289Z,7.17
2018-06-24T07:16:18.590Z,6.83
2018-06-24T07:21:22.101Z,7.37
2018-06-24T07:26:25.633Z,6.77
2018-06-24T07:31:28.943Z,5.73
2018-06-24T07:36:32.224Z,8.07
2018-06-24T07:41:35.521Z,9.77
2018-06-24T07:46:38.844Z,9.20
2018-06-24T07:51:42.136Z,6.77
2018-06-24T07:56:45.852Z,9.00
2018-06-24T08:01:49.162Z,5.03
2018-06-24T08:06:52.817Z,6.97
2018-06-24T08:11:56.106Z,5.17
2018-06-24T08:16:59.384Z,5.50
2018-06-24T08:22:03.029Z,4.37
2018-06-24T08:27:07.045Z,5.43
2018-06-24T08:32:10.360Z,7.23
2018-06-24T08:37:13.655Z,5.00
2018-06-24T08:42:17.573Z,3.37
2018-06-24T08:47:20.926Z,8.03
2018-06-24T08:52:24.240Z,3.50
2018-06-24T08:57:27.576Z,4.90
2018-06-24T09:02:30.863Z,2.77
2018-06-24T09:07:34.221Z,3.57
2018-06-24T09:12:37.520Z,5.60
2018-06-24T09:17:41.081Z,3.73
2018-06-24T09:22:44.121Z,2.57
2018-06-24T09:27:47.460Z,6.87
2018-06-24T09:32:50.741Z,2.73
2018-06-24T09:37:54.052Z,2.47
2018-06-24T09:42:57.392Z,2.33
2018-06-24T09:48:00.714Z,1.63
2018-06-24T09:53:04.344Z,2.60
2018-06-24T09:58:07.848Z,1.17
2018-06-24T10:03:11.448Z,1.63
2018-06-24T10:08:14.820Z,2.80
2018-06-24T10:13:18.216Z,3.73
2018-06-24T10:18:21.758Z,2.53
2018-06-24T10:23:25.182Z,1.63
2018-06-24T10:28:28.883Z,4.53
2018-06-24T10:33:32.197Z,1.20
2018-06-24T10:38:35.509Z,2.37
2018-06-24T10:43:38.805Z,2.33
2018-06-24T10:48:42.095Z,2.17
2018-06-24T10:53:45.389Z,2.17
2018-06-24T10:58:48.745Z,1.37
2018-06-24T11:03:52.165Z,1.37
2018-06-24T11:08:55.563Z,2.40
2018-06-24T11:13:59.016Z,3.10
2018-06-24T11:19:02.650Z,3.30
2018-06-24T11:24:06.154Z,1.63
2018-06-24T11:29:11.221Z,2.30
2018-06-24T11:34:15.600Z,1.17
2018-06-24T11:39:21.273Z,1.83
2018-06-24T11:44:27.411Z,1.23
2018-06-24T11:49:31.560Z,1.77
2018-06-24T11:54:34.824Z,2.30
2018-06-24T11:59:38.115Z,1.60
2018-06-24T12:04:41.893Z,2.07
2018-06-24T12:09:45.190Z,2.33
2018-06-24T12:14:51.505Z,1.23
2018-06-24T12:19:55.432Z,2.90
2018-06-24T12:24:59.182Z,2.70
2018-06-24T12:30:02.488Z,1.00
2018-06-24T12:35:05.949Z,0.97
2018-06-24T12:40:09.331Z,1.03
2018-06-24T12:45:12.877Z,2.93
2018-06-24T12:50:16.415Z,2.13
2018-06-24T12:55:19.812Z,1.33
2018-06-24T13:00:23.852Z,1.03
2018-06-24T13:05:27.856Z,1.50
2018-06-24T13:10:31.293Z,0.90
2018-06-24T13:15:34.897Z,2.17
2018-06-24T13:20:38.358Z,1.70
2018-06-24T13:25:42.197Z,1.07
2018-06-24T13:30:46.598Z,1.27
2018-06-24T13:35:49.876Z,2.03
2018-06-24T13:40:53.370Z,1.73
2018-06-24T13:45:56.856Z,1.60
2018-06-24T13:51:00.012Z,1.20
2018-06-24T13:56:03.484Z,1.20
2018-06-24T14:01:06.959Z,2.87
2018-06-24T14:06:10.670Z,4.27
2018-06-24T14:11:14.085Z,2.17
2018-06-24T14:16:17.546Z,2.63
2018-06-24T14:21:20.639Z,1.63
2018-06-24T14:26:24.133Z,2.23
2018-06-24T14:31:27.558Z,5.30
2018-06-24T14:36:31.019Z,2.20
2018-06-24T14:41:34.842Z,5.30
2018-06-24T14:46:38.368Z,1.37
2018-06-24T14:51:41.859Z,2.47
2018-06-24T14:56:45.360Z,2.07
2018-06-24T15:01:48.501Z,1.93
2018-06-24T15:06:52.020Z,2.87
2018-06-24T15:11:55.419Z,2.50
2018-06-24T15:16:58.803Z,2.43
2018-06-24T15:22:02.154Z,3.23
2018-06-24T15:27:05.698Z,1.37
2018-06-24T15:32:09.092Z,3.47
2018-06-24T15:37:12.580Z,1.77
2018-06-24T15:42:16.366Z,2.30
2018-06-24T15:47:19.811Z,1.40
2018-06-24T15:52:23.070Z,3.33
2018-06-24T15:57:26.490Z,2.93
2018-06-24T16:02:29.965Z,3.53
2018-06-24T16:07:33.403Z,2.00
2018-06-24T16:12:36.897Z,2.77
2018-06-24T16:17:40.419Z,2.53
2018-06-24T16:22:43.897Z,3.63
2018-06-24T16:27:47.366Z,4.13
2018-06-24T16:32:50.794Z,6.03
2018-06-24T16:37:54.194Z,2.80
2018-06-24T16:42:58.600Z,2.10
2018-06-24T16:48:02.009Z,2.60
2018-06-24T16:53:05.706Z,1.50
2018-06-24T16:58:09.638Z,2.53
2018-06-24T17:03:13.344Z,3.00
2018-06-24T17:08:16.773Z,5.17
2018-06-24T17:13:20.214Z,3.10
2018-06-24T17:18:24.502Z,4.90
2018-06-24T17:23:28.818Z,4.13
2018-06-24T17:28:32.319Z,3.53
2018-06-24T17:33:35.717Z,2.63
2018-06-24T17:38:39.181Z,4.20
2018-06-24T17:43:42.404Z,3.30
2018-06-24T17:48:45.852Z,3.47
2018-06-24T17:53:49.458Z,3.53
2018-06-24T17:58:53.116Z,4.13
2018-06-24T18:03:56.646Z,2.37
2018-06-24T18:09:00.090Z,2.47
2018-06-24T18:14:03.249Z,2.63
2018-06-24T18:19:07.202Z,3.27
2018-06-24T18:24:10.510Z,5.10
2018-06-24T18:29:14.183Z,2.53
2018-06-24T18:34:17.620Z,4.67
2018-06-24T18:39:21.007Z,1.70
2018-06-24T18:44:24.135Z,3.77
2018-06-24T18:49:27.860Z,2.23
2018-06-24T18:54:31.386Z,3.63
2018-06-24T18:59:35.351Z,2.00
2018-06-24T19:04:38.489Z,4.60
2018-06-24T19:09:42.137Z,4.10
2018-06-24T19:14:45.530Z,3.13
2018-06-24T19:19:49.072Z,3.57
2018-06-24T19:24:53.674Z,3.13
2018-06-24T19:29:58.192Z,4.90
2018-06-24T19:35:01.273Z,3.87
2018-06-24T19:40:05.307Z,4.83
2018-06-24T19:45:09.456Z,1.40
2018-06-24T19:50:12.835Z,2.00
2018-06-24T19:55:16.115Z,3.37
2018-06-24T20:00:19.212Z,3.33
2018-06-24T20:05:22.633Z,3.67
2018-06-24T20:10:26.036Z,2.07
2018-06-24T20:15:30.089Z,2.70
2018-06-24T20:20:33.751Z,9.53
2018-06-24T20:25:37.167Z,2.13
2018-06-24T20:30:40.586Z,3.43
2018-06-24T20:35:44.034Z,2.10
2018-06-24T20:40:47.438Z,4.23
2018-06-24T20:46:54.463Z,4.87
2018-06-24T20:51:58.337Z,2.90
2018-06-24T20:57:01.748Z,3.57
2018-06-24T21:02:05.360Z,3.57
2018-06-24T21:07:08.755Z,3.73
2018-06-24T21:12:12.220Z,3.30
2018-06-24T21:17:15.227Z,3.10
2018-06-24T21:22:18.714Z,3.87
2018-06-24T21:27:21.981Z,3.00
2018-06-24T21:32:25.835Z,4.00
2018-06-24T21:37:29.150Z,4.60
2018-06-24T21:42:32.685Z,3.40
2018-06-24T21:47:36.160Z,4.47
2018-06-24T21:52:40.497Z,6.77
2018-06-24T21:57:44.433Z,7.43
2018-06-24T22:02:47.446Z,4.10
2018-06-24T22:07:50.684Z,3.30
2018-06-24T22:12:53.944Z,3.70
2018-06-24T22:17:57.439Z,3.70
2018-06-24T22:23:00.731Z,4.47
2018-06-24T22:28:03.991Z,4.47
2018-06-24T22:33:07.998Z,4.07
2018-06-24T22:38:11.388Z,3.30
2018-06-24T22:43:14.602Z,2.97
2018-06-24T22:48:18.227Z,3.33
2018-06-24T22:53:22.135Z,2.73
2018-06-24T22:58:26.013Z,5.80
2018-06-24T23:03:29.481Z,7.50
2018-06-24T23:08:33.089Z,3.70
2018-06-24T23:13:36.807Z,4.37
2018-06-24T23:18:40.386Z,6.97
2018-06-24T23:23:43.730Z,4.23
2018-06-24T23:28:47.016Z,4.87
2018-06-24T23:33:50.293Z,3.73
2018-06-24T23:38:53.561Z,3.10
2018-06-24T23:43:56.969Z,6.30
2018-06-24T23:49:00.256Z,6.67
2018-06-24T23:54:03.859Z,5.37
2018-06-24T23:59:07.186Z,4.30
